Time;durP1;ratioP1;P1;durP2;ratioP2;P2;SDS_P1;SDS_P2;PMS_P1;PMS_P2;Temp;Humidity;BMP_temperature;BMP_pressure;BME280_temperature;BME280_humidity;BME280_pressure;Samples;Min_cycle;Max_cycle;Signal;HPM_P1;HPM_P2
2021/01/24 00:02:21;;;;;;;3.47;3.17;;;;;;;;;;5092634;28;20479;-66
2021/01/24 00:04:48;;;;;;;4.13;3.72;;;;;;;;;;5092539;28;20052;-66
2021/01/24 00:07:14;;;;;;;4.65;3.83;;;;;;;;;;5092429;28;20028;-66
2021/01/24 00:09:40;;;;;;;2.95;2.75;;;;;;;;;;5093336;28;20033;-66
2021/01/24 00:12:06;;;;;;;2.95;2.75;;;;;;;;;;5093606;28;20028;-66
2021/01/24 00:14:32;;;;;;;3.72;3.38;;;;;;;;;;5092623;28;20032;-67
2021/01/24 00:16:58;;;;;;;2.80;2.42;;;;;;;;;;5093230;28;20505;-66
2021/01/24 00:19:24;;;;;;;2.90;2.70;;;;;;;;;;5093051;28;20020;-66
2021/01/24 00:21:50;;;;;;;5.30;3.53;;;;;;;;;;5093362;28;20023;-66
2021/01/24 00:24:16;;;;;;;4.78;3.38;;;;;;;;;;5092881;28;20081;-67
2021/01/24 00:26:43;;;;;;;4.38;3.72;;;;;;;;;;5092463;28;20039;-66
2021/01/24 00:29:09;;;;;;;3.20;2.90;;;;;;;;;;5092915;28;20024;-66
2021/01/24 00:31:35;;;;;;;4.05;3.40;;;;;;;;;;5092326;28;20054;-67
2021/01/24 00:34:01;;;;;;;4.53;3.25;;;;;;;;;;5092940;28;20021;-66
2021/01/24 00:36:27;;;;;;;3.90;3.30;;;;;;;;;;5091317;28;20031;-66
2021/01/24 00:38:53;;;;;;;3.60;3.28;;;;;;;;;;5072876;28;20029;-66
2021/01/24 00:41:19;;;;;;;3.72;3.10;;;;;;;;;;5071905;28;20031;-67
2021/01/24 00:43:45;;;;;;;4.63;3.05;;;;;;;;;;5072083;28;20506;-66
2021/01/24 00:46:11;;;;;;;3.63;3.10;;;;;;;;;;5071096;28;20285;-66
2021/01/24 00:48:38;;;;;;;3.78;3.42;;;;;;;;;;5072331;28;20039;-67
2021/01/24 00:51:05;;;;;;;3.83;3.00;;;;;;;;;;5072139;28;20031;-66
2021/01/24 00:53:31;;;;;;;4.70;3.42;;;;;;;;;;5071393;28;20024;-66
2021/01/24 00:55:57;;;;;;;4.05;3.60;;;;;;;;;;5072099;28;20491;-67
2021/01/24 00:58:24;;;;;;;3.35;2.85;;;;;;;;;;5071537;28;20453;-66
2021/01/24 01:00:50;;;;;;;3.05;2.13;;;;;;;;;;5072195;28;20031;-66
2021/01/24 01:03:16;;;;;;;3.58;3.08;;;;;;;;;;5071866;28;20383;-67
2021/01/24 01:05:42;;;;;;;2.72;2.53;;;;;;;;;;5071747;28;20076;-67
2021/01/24 01:08:08;;;;;;;3.10;2.67;;;;;;;;;;5071798;28;20028;-66
2021/01/24 01:10:34;;;;;;;3.30;2.70;;;;;;;;;;5071115;28;20059;-66
2021/01/24 01:13:01;;;;;;;3.38;3.08;;;;;;;;;;5072321;28;20024;-66
2021/01/24 01:15:27;;;;;;;2.75;2.55;;;;;;;;;;5071627;28;20029;-67
2021/01/24 01:17:53;;;;;;;3.20;2.90;;;;;;;;;;5072378;28;20021;-66
2021/01/24 01:20:19;;;;;;;2.33;2.13;;;;;;;;;;5071577;28;20016;-66
2021/01/24 01:22:45;;;;;;;2.63;2.33;;;;;;;;;;5092362;28;20082;-66
2021/01/24 01:25:11;;;;;;;2.72;2.30;;;;;;;;;;5092283;28;20030;-66
2021/01/24 01:27:38;;;;;;;3.40;2.13;;;;;;;;;;5091643;28;20104;-67
2021/01/24 01:30:07;;;;;;;2.92;2.63;;;;;;;;;;5092425;28;20028;-66
2021/01/24 01:32:34;;;;;;;2.15;1.95;;;;;;;;;;5090822;28;20028;-67
2021/01/24 01:35:00;;;;;;;2.17;2.03;;;;;;;;;;5091455;28;20028;-66
2021/01/24 01:37:26;;;;;;;3.38;2.53;;;;;;;;;;5090605;28;20363;-67
2021/01/24 01:39:52;;;;;;;2.40;2.28;;;;;;;;;;5091802;28;20032;-67
2021/01/24 01:42:19;;;;;;;3.15;2.35;;;;;;;;;;5090923;28;20467;-66
2021/01/24 01:44:45;;;;;;;2.80;2.38;;;;;;;;;;5091851;28;20424;-67
2021/01/24 01:47:12;;;;;;;2.20;1.85;;;;;;;;;;5092015;28;20028;-66
2021/01/24 01:49:39;;;;;;;2.58;2.15;;;;;;;;;;5091515;28;20177;-67
2021/01/24 01:52:05;;;;;;;3.53;1.98;;;;;;;;;;5090760;28;20053;-66
2021/01/24 01:54:31;;;;;;;1.73;1.63;;;;;;;;;;5070765;28;20035;-67
2021/01/24 01:56:58;;;;;;;1.77;1.55;;;;;;;;;;5070937;28;20491;-66
2021/01/24 01:59:24;;;;;;;1.52;1.40;;;;;;;;;;5070465;28;20031;-67
2021/01/24 02:01:58;;;;;;;1.67;1.58;;;;;;;;;;5070795;28;20055;-67
2021/01/24 02:04:27;;;;;;;3.10;1.83;;;;;;;;;;5070236;28;20422;-67
2021/01/24 02:06:58;;;;;;;2.50;1.92;;;;;;;;;;5070622;28;20039;-66
2021/01/24 02:09:33;;;;;;;1.20;1.05;;;;;;;;;;5069934;28;20028;-67
2021/01/24 02:12:19;;;;;;;2.63;1.80;;;;;;;;;;5070560;28;20278;-66
2021/01/24 02:15:04;;;;;;;1.20;1.10;;;;;;;;;;5069785;28;20321;-66
2021/01/24 02:17:33;;;;;;;1.38;1.15;;;;;;;;;;5069960;28;20052;-66
2021/01/24 02:20:02;;;;;;;2.47;1.70;;;;;;;;;;5070428;28;20060;-67
2021/01/24 02:22:29;;;;;;;1.55;1.38;;;;;;;;;;5069841;28;20399;-66
2021/01/24 02:24:58;;;;;;;1.30;1.20;;;;;;;;;;5070710;28;20032;-66
2021/01/24 02:27:47;;;;;;;1.38;1.27;;;;;;;;;;5070045;28;20032;-66
2021/01/24 02:30:33;;;;;;;1.90;1.58;;;;;;;;;;5070105;28;20402;-67
2021/01/24 02:33:04;;;;;;;1.45;1.30;;;;;;;;;;5070272;28;20028;-66
2021/01/24 02:35:32;;;;;;;1.20;1.10;;;;;;;;;;5070008;28;20102;-66
2021/01/24 02:37:59;;;;;;;1.10;1.00;;;;;;;;;;5081989;28;20028;-66
2021/01/24 02:40:26;;;;;;;1.25;0.80;;;;;;;;;;5090038;28;20020;-67
2021/01/24 02:42:52;;;;;;;1.13;0.98;;;;;;;;;;5090370;28;20028;-66
2021/01/24 02:45:20;;;;;;;0.95;0.95;;;;;;;;;;5090034;28;20028;-67
2021/01/24 02:47:47;;;;;;;2.70;1.15;;;;;;;;;;5090597;28;20502;-66
2021/01/24 02:50:14;;;;;;;0.93;0.93;;;;;;;;;;5089894;28;20085;-66
2021/01/24 02:52:41;;;;;;;2.58;1.17;;;;;;;;;;5090676;28;20524;-66
2021/01/24 02:55:08;;;;;;;1.42;1.33;;;;;;;;;;5089946;28;20028;-66
2021/01/24 02:57:35;;;;;;;0.98;0.90;;;;;;;;;;5089822;28;20142;-67
2021/01/24 03:00:01;;;;;;;0.80;0.80;;;;;;;;;;5090281;28;20114;-67
2021/01/24 03:02:27;;;;;;;0.98;0.73;;;;;;;;;;5089674;28;20479;-67
2021/01/24 03:04:53;;;;;;;1.25;0.70;;;;;;;;;;5089739;28;20517;-66
2021/01/24 03:07:19;;;;;;;3.22;0.98;;;;;;;;;;5089219;28;20036;-67
2021/01/24 03:09:45;;;;;;;1.10;1.08;;;;;;;;;;5089692;28;20028;-66
2021/01/24 03:12:13;;;;;;;1.85;1.00;;;;;;;;;;5089945;28;20028;-67
2021/01/24 03:14:39;;;;;;;1.02;0.75;;;;;;;;;;5089666;28;20717;-66
2021/01/24 03:17:05;;;;;;;1.00;0.85;;;;;;;;;;5090031;28;20050;-66
2021/01/24 03:19:33;;;;;;;0.95;0.95;;;;;;;;;;5089753;28;20557;-66
2021/01/24 03:22:01;;;;;;;0.73;0.68;;;;;;;;;;5075781;28;20084;-66
2021/01/24 03:24:27;;;;;;;1.00;0.52;;;;;;;;;;5068770;28;20043;-66
2021/01/24 03:26:53;;;;;;;0.65;0.65;;;;;;;;;;5069705;28;20033;-66
2021/01/24 03:29:20;;;;;;;0.47;0.47;;;;;;;;;;5069361;28;20555;-66
2021/01/24 03:31:47;;;;;;;0.60;0.50;;;;;;;;;;5070027;28;20033;-66
2021/01/24 03:34:23;;;;;;;0.70;0.70;;;;;;;;;;5068893;28;20029;-66
2021/01/24 03:36:49;;;;;;;1.02;0.98;;;;;;;;;;5069067;28;20116;-66
2021/01/24 03:39:16;;;;;;;1.15;1.05;;;;;;;;;;5068663;28;20033;-66
2021/01/24 03:41:42;;;;;;;0.43;0.43;;;;;;;;;;5069502;28;20029;-66
2021/01/24 03:44:08;;;;;;;0.40;0.40;;;;;;;;;;5068820;28;20044;-66
2021/01/24 03:46:35;;;;;;;0.57;0.57;;;;;;;;;;5068493;28;20036;-66
2021/01/24 03:49:01;;;;;;;0.65;0.65;;;;;;;;;;5069420;28;20032;-66
2021/01/24 03:51:28;;;;;;;0.47;0.47;;;;;;;;;;5069088;28;20021;-67
2021/01/24 03:53:54;;;;;;;0.30;0.30;;;;;;;;;;5084773;28;20031;-66
2021/01/24 03:56:20;;;;;;;1.33;0.50;;;;;;;;;;5089120;28;20032;-66
2021/01/24 03:58:46;;;;;;;0.70;0.70;;;;;;;;;;5089061;28;20036;-66
2021/01/24 04:01:12;;;;;;;0.60;0.52;;;;;;;;;;5089538;28;20024;-67
2021/01/24 04:03:38;;;;;;;0.47;0.47;;;;;;;;;;5088937;28;20028;-66
2021/01/24 04:06:04;;;;;;;0.50;0.50;;;;;;;;;;5088564;28;20036;-66
2021/01/24 04:08:30;;;;;;;0.25;0.25;;;;;;;;;;5088452;28;20028;-66
2021/01/24 04:10:56;;;;;;;0.40;0.40;;;;;;;;;;5089588;28;20032;-66
2021/01/24 04:13:23;;;;;;;0.30;0.22;;;;;;;;;;5088911;28;20032;-66
2021/01/24 04:15:49;;;;;;;0.50;0.50;;;;;;;;;;5089101;28;20028;-66
2021/01/24 04:18:15;;;;;;;0.40;0.40;;;;;;;;;;5088964;28;20400;-66
2021/01/24 04:20:41;;;;;;;0.57;0.57;;;;;;;;;;5090574;28;20478;-66
2021/01/24 04:23:07;;;;;;;0.30;0.30;;;;;;;;;;5093300;28;20501;-66
2021/01/24 04:25:34;;;;;;;0.13;0.13;;;;;;;;;;5092070;28;20204;-66
2021/01/24 04:28:00;;;;;;;0.50;0.50;;;;;;;;;;5092662;28;20487;-66
2021/01/24 04:30:26;;;;;;;0.43;0.40;;;;;;;;;;5092423;28;20103;-66
2021/01/24 04:32:52;;;;;;;0.60;0.32;;;;;;;;;;5092721;28;20470;-66
2021/01/24 04:35:18;;;;;;;0.38;0.38;;;;;;;;;;5092235;28;20024;-66
2021/01/24 04:37:44;;;;;;;1.42;0.70;;;;;;;;;;5082194;28;20017;-66
2021/01/24 04:40:11;;;;;;;0.60;0.60;;;;;;;;;;5072648;28;20446;-66
2021/01/24 04:42:40;;;;;;;0.63;0.38;;;;;;;;;;5071912;28;20498;-66
2021/01/24 04:45:07;;;;;;;0.52;0.52;;;;;;;;;;5071943;28;20384;-66
2021/01/24 04:47:33;;;;;;;0.20;0.20;;;;;;;;;;5072176;28;20459;-66
2021/01/24 04:50:00;;;;;;;0.25;0.25;;;;;;;;;;5072710;28;20193;-66
2021/01/24 04:52:26;;;;;;;0.30;0.30;;;;;;;;;;5072399;28;20034;-66
2021/01/24 04:54:52;;;;;;;0.35;0.35;;;;;;;;;;5072082;28;20498;-66
2021/01/24 04:57:20;;;;;;;0.63;0.60;;;;;;;;;;5072167;28;20494;-66
2021/01/24 04:59:46;;;;;;;0.63;0.30;;;;;;;;;;5071998;28;20154;-66
2021/01/24 05:02:13;;;;;;;0.65;0.65;;;;;;;;;;5072489;28;20032;-66
2021/01/24 05:04:39;;;;;;;0.25;0.25;;;;;;;;;;5071420;28;20060;-66
2021/01/24 05:07:05;;;;;;;0.30;0.30;;;;;;;;;;5071315;28;20097;-66
2021/01/24 05:09:31;;;;;;;0.40;0.20;;;;;;;;;;5071837;28;20422;-66
2021/01/24 05:11:57;;;;;;;0.40;0.20;;;;;;;;;;5071749;28;20208;-66
2021/01/24 05:14:24;;;;;;;0.47;0.20;;;;;;;;;;5070996;28;20507;-66
2021/01/24 05:16:54;;;;;;;1.27;0.70;;;;;;;;;;5071553;28;20024;-66
2021/01/24 05:19:21;;;;;;;0.20;0.20;;;;;;;;;;5071488;28;20027;-66
2021/01/24 05:21:48;;;;;;;0.28;0.20;;;;;;;;;;5083915;28;20028;-66
2021/01/24 05:24:14;;;;;;;0.43;0.43;;;;;;;;;;5091855;28;20028;-66
2021/01/24 05:26:44;;;;;;;0.10;0.10;;;;;;;;;;5091703;28;20040;-66
2021/01/24 05:29:20;;;;;;;0.17;0.17;;;;;;;;;;5092011;28;20363;-66
2021/01/24 05:31:46;;;;;;;0.15;0.15;;;;;;;;;;5091506;28;20032;-66
2021/01/24 05:34:15;;;;;;;0.20;0.20;;;;;;;;;;5091626;28;20460;-66
2021/01/24 05:36:42;;;;;;;0.47;0.28;;;;;;;;;;5091183;28;20040;-66
2021/01/24 05:39:09;;;;;;;0.10;0.10;;;;;;;;;;5091861;28;20052;-66
2021/01/24 05:41:35;;;;;;;0.22;0.22;;;;;;;;;;5090728;28;20074;-66
2021/01/24 05:44:01;;;;;;;0.10;0.10;;;;;;;;;;5091963;28;20465;-66
2021/01/24 05:46:33;;;;;;;0.20;0.20;;;;;;;;;;5090766;28;20036;-66
2021/01/24 05:48:59;;;;;;;0.10;0.10;;;;;;;;;;5091277;28;20024;-66
2021/01/24 05:51:26;;;;;;;0.45;0.30;;;;;;;;;;5090339;28;20099;-66
2021/01/24 05:53:56;;;;;;;0.17;0.17;;;;;;;;;;5090516;28;20028;-66
2021/01/24 05:56:22;;;;;;;0.17;0.10;;;;;;;;;;5090125;28;20093;-66
2021/01/24 05:58:59;;;;;;;0.20;0.20;;;;;;;;;;5091583;28;20056;-66
2021/01/24 06:01:25;;;;;;;0.20;0.20;;;;;;;;;;5090097;28;20035;-66
2021/01/24 06:03:54;;;;;;;0.10;0.10;;;;;;;;;;5090891;28;20024;-67
2021/01/24 06:06:20;;;;;;;0.20;0.20;;;;;;;;;;5090253;28;20464;-66
2021/01/24 06:08:47;;;;;;;0.10;0.10;;;;;;;;;;5091368;28;20028;-67
2021/01/24 06:11:14;;;;;;;0.38;0.38;;;;;;;;;;5090538;28;20039;-66
2021/01/24 06:13:41;;;;;;;0.10;0.10;;;;;;;;;;5090530;28;20054;-67
2021/01/24 06:16:09;;;;;;;0.22;0.10;;;;;;;;;;5091465;28;20051;-66
2021/01/24 06:18:55;;;;;;;0.30;0.20;;;;;;;;;;5090854;28;20512;-67
2021/01/24 06:21:24;;;;;;;0.25;0.25;;;;;;;;;;5089720;28;20108;-67
2021/01/24 06:23:53;;;;;;;0.38;0.30;;;;;;;;;;5091025;28;20027;-66
2021/01/24 06:26:20;;;;;;;0.32;0.30;;;;;;;;;;5089429;28;20035;-67
2021/01/24 06:28:47;;;;;;;0.10;0.10;;;;;;;;;;5090958;28;20016;-67
2021/01/24 06:31:18;;;;;;;0.20;0.15;;;;;;;;;;5090330;28;20390;-67
2021/01/24 06:33:44;;;;;;;0.10;0.10;;;;;;;;;;5089653;28;20035;-66
2021/01/24 06:36:11;;;;;;;0.10;0.10;;;;;;;;;;5090797;28;20024;-66
2021/01/24 06:38:41;;;;;;;0.38;0.10;;;;;;;;;;5071741;28;20401;-66
2021/01/24 06:41:11;;;;;;;0.00;0.00;;;;;;;;;;5070097;28;20462;-66
2021/01/24 06:43:43;;;;;;;0.10;0.10;;;;;;;;;;5068718;28;20033;-66
2021/01/24 06:46:22;;;;;;;0.00;0.00;;;;;;;;;;5070626;28;20040;-66
2021/01/24 06:48:49;;;;;;;0.30;0.30;;;;;;;;;;5070485;28;20082;-66
2021/01/24 06:51:31;;;;;;;0.10;0.10;;;;;;;;;;5069690;28;20028;-67
2021/01/24 06:53:57;;;;;;;0.20;0.10;;;;;;;;;;5069627;28;20032;-66
2021/01/24 06:56:26;;;;;;;0.10;0.10;;;;;;;;;;5069540;28;20029;-66
2021/01/24 06:58:52;;;;;;;0.10;0.10;;;;;;;;;;5069553;28;20163;-66
2021/01/24 07:01:24;;;;;;;0.28;0.10;;;;;;;;;;5069505;28;20447;-66
2021/01/24 07:04:09;;;;;;;0.20;0.10;;;;;;;;;;5079196;27;20102;-66
2021/01/24 07:06:35;;;;;;;0.28;0.13;;;;;;;;;;5130370;27;20084;-66
2021/01/24 07:09:21;;;;;;;0.10;0.10;;;;;;;;;;5131297;27;20027;-66
2021/01/24 07:11:50;;;;;;;0.10;0.10;;;;;;;;;;5131206;27;20027;-66
2021/01/24 07:14:35;;;;;;;0.15;0.15;;;;;;;;;;5129433;27;20034;-67
2021/01/24 07:17:07;;;;;;;0.20;0.20;;;;;;;;;;5130720;27;20050;-67
2021/01/24 07:19:39;;;;;;;0.57;0.32;;;;;;;;;;5129935;27;20156;-67
2021/01/24 07:22:05;;;;;;;0.08;0.08;;;;;;;;;;5130345;27;20031;-66
2021/01/24 07:24:31;;;;;;;0.17;0.17;;;;;;;;;;5130164;28;20038;-66
2021/01/24 07:26:58;;;;;;;0.20;0.10;;;;;;;;;;5130708;28;20032;-66
2021/01/24 07:29:25;;;;;;;0.28;0.28;;;;;;;;;;5130081;28;20123;-66
2021/01/24 07:31:51;;;;;;;0.08;0.08;;;;;;;;;;5130862;28;20034;-66
2021/01/24 07:34:24;;;;;;;0.20;0.20;;;;;;;;;;5129654;28;20047;-66
2021/01/24 07:36:50;;;;;;;0.10;0.10;;;;;;;;;;5129953;28;20136;-66
2021/01/24 07:39:17;;;;;;;0.22;0.20;;;;;;;;;;5130877;28;20428;-66
2021/01/24 07:41:43;;;;;;;0.03;0.03;;;;;;;;;;5130726;28;20022;-66
2021/01/24 07:44:10;;;;;;;0.17;0.17;;;;;;;;;;5130562;28;20112;-66
2021/01/24 07:46:36;;;;;;;0.20;0.20;;;;;;;;;;5129683;28;20046;-66
2021/01/24 07:49:03;;;;;;;0.50;0.10;;;;;;;;;;5130630;28;20031;-66
2021/01/24 07:51:29;;;;;;;0.10;0.10;;;;;;;;;;5130033;28;20023;-66
2021/01/24 07:53:55;;;;;;;0.35;0.20;;;;;;;;;;5126709;28;20397;-66
2021/01/24 07:56:21;;;;;;;0.10;0.10;;;;;;;;;;5133292;27;20087;-66
2021/01/24 07:58:47;;;;;;;0.40;0.40;;;;;;;;;;5134232;27;20374;-66
2021/01/24 08:01:14;;;;;;;0.03;0.03;;;;;;;;;;5134510;27;20114;-66
2021/01/24 08:03:42;;;;;;;0.20;0.17;;;;;;;;;;5134535;27;20087;-66
2021/01/24 08:06:08;;;;;;;0.43;0.43;;;;;;;;;;5134018;27;20019;-66
2021/01/24 08:08:36;;;;;;;0.10;0.10;;;;;;;;;;5134007;27;20035;-66
2021/01/24 08:11:02;;;;;;;0.20;0.20;;;;;;;;;;5134855;27;20027;-66
2021/01/24 08:13:29;;;;;;;0.32;0.17;;;;;;;;;;5133461;27;20023;-66
2021/01/24 08:15:56;;;;;;;0.30;0.20;;;;;;;;;;5134011;27;20031;-66
2021/01/24 08:18:23;;;;;;;0.10;0.10;;;;;;;;;;5133809;27;20538;-66
2021/01/24 08:20:49;;;;;;;0.40;0.30;;;;;;;;;;5134223;27;20030;-66
2021/01/24 08:23:16;;;;;;;0.10;0.10;;;;;;;;;;5133797;27;20028;-67
2021/01/24 08:25:43;;;;;;;0.68;0.35;;;;;;;;;;5132035;27;20270;-67
2021/01/24 08:28:09;;;;;;;0.43;0.20;;;;;;;;;;5130859;27;20100;-66
2021/01/24 08:30:39;;;;;;;0.20;0.20;;;;;;;;;;5131318;27;20109;-67
2021/01/24 08:33:07;;;;;;;0.20;0.20;;;;;;;;;;5132621;27;20101;-66
2021/01/24 08:35:34;;;;;;;0.40;0.32;;;;;;;;;;5131181;27;20035;-67
2021/01/24 08:38:01;;;;;;;0.30;0.20;;;;;;;;;;5121244;27;20023;-66
2021/01/24 08:40:34;;;;;;;0.28;0.20;;;;;;;;;;5129972;27;20122;-66
2021/01/24 08:43:00;;;;;;;3.30;1.38;;;;;;;;;;5131844;27;20401;-66
2021/01/24 08:45:28;;;;;;;0.60;0.52;;;;;;;;;;5130869;27;20023;-67
2021/01/24 08:47:54;;;;;;;1.15;0.80;;;;;;;;;;5130534;27;20035;-67
2021/01/24 08:50:21;;;;;;;0.52;0.38;;;;;;;;;;5144821;27;20015;-67
2021/01/24 08:53:00;;;;;;;0.90;0.65;;;;;;;;;;5151320;27;20027;-67
2021/01/24 08:55:27;;;;;;;1.15;0.75;;;;;;;;;;5151271;27;20026;-66
2021/01/24 08:57:53;;;;;;;0.45;0.45;;;;;;;;;;5152597;27;20113;-66
2021/01/24 09:00:20;;;;;;;0.65;0.50;;;;;;;;;;5148547;27;20026;-67
2021/01/24 09:02:46;;;;;;;0.35;0.35;;;;;;;;;;5151780;27;20027;-66
2021/01/24 09:05:16;;;;;;;1.23;0.73;;;;;;;;;;5149745;27;20093;-66
2021/01/24 09:07:46;;;;;;;1.58;0.32;;;;;;;;;;5149067;27;20042;-67
2021/01/24 09:10:22;;;;;;;0.57;0.57;;;;;;;;;;5149605;27;20438;-66
2021/01/24 09:12:49;;;;;;;0.80;0.80;;;;;;;;;;5151391;27;20027;-66
2021/01/24 09:15:16;;;;;;;2.17;0.68;;;;;;;;;;5150503;27;20084;-67
2021/01/24 09:17:43;;;;;;;0.75;0.75;;;;;;;;;;5151094;27;20396;-66
2021/01/24 09:20:10;;;;;;;0.50;0.50;;;;;;;;;;5151754;27;20428;-66
2021/01/24 09:22:36;;;;;;;1.00;0.65;;;;;;;;;;5131427;27;20027;-67
2021/01/24 09:25:03;;;;;;;0.68;0.50;;;;;;;;;;5130063;27;20023;-66
2021/01/24 09:27:29;;;;;;;1.35;0.70;;;;;;;;;;5130043;27;20031;-67
2021/01/24 09:29:55;;;;;;;0.88;0.82;;;;;;;;;;5130381;27;20023;-66
2021/01/24 09:32:22;;;;;;;0.50;0.50;;;;;;;;;;5130012;27;20025;-67
2021/01/24 09:34:48;;;;;;;2.10;0.60;;;;;;;;;;5130181;27;20473;-67
2021/01/24 09:37:14;;;;;;;0.85;0.82;;;;;;;;;;5128264;27;20023;-67
2021/01/24 09:39:40;;;;;;;1.00;0.70;;;;;;;;;;5130218;27;20047;-66
2021/01/24 09:42:06;;;;;;;0.85;0.77;;;;;;;;;;5130593;27;20052;-67
2021/01/24 09:44:32;;;;;;;0.70;0.70;;;;;;;;;;5129870;27;20077;-67
2021/01/24 09:46:58;;;;;;;0.75;0.70;;;;;;;;;;5130982;27;20033;-66
2021/01/24 09:49:25;;;;;;;0.80;0.60;;;;;;;;;;5130431;27;20019;-66
2021/01/24 09:51:51;;;;;;;0.80;0.80;;;;;;;;;;5122608;27;20106;-66
2021/01/24 09:54:17;;;;;;;0.98;0.93;;;;;;;;;;5126428;27;20019;-66
2021/01/24 09:56:44;;;;;;;0.40;0.40;;;;;;;;;;5130594;27;20031;-67
2021/01/24 09:59:11;;;;;;;1.00;0.90;;;;;;;;;;5130618;27;20401;-67
2021/01/24 10:01:37;;;;;;;1.02;0.93;;;;;;;;;;5130281;27;20370;-66
2021/01/24 10:04:03;;;;;;;1.20;0.93;;;;;;;;;;5130400;27;20184;-66
2021/01/24 10:06:30;;;;;;;2.80;2.60;;;;;;;;;;5128515;27;20112;-67
2021/01/24 10:08:56;;;;;;;1.50;1.40;;;;;;;;;;5130762;27;20033;-67
2021/01/24 10:11:23;;;;;;;2.15;2.05;;;;;;;;;;5129892;27;20444;-66
2021/01/24 10:13:49;;;;;;;1.55;1.17;;;;;;;;;;5129773;27;20034;-66
2021/01/24 10:16:15;;;;;;;1.27;1.17;;;;;;;;;;5129187;27;20029;-67
2021/01/24 10:18:41;;;;;;;1.80;1.70;;;;;;;;;;5129509;27;20029;-66
2021/01/24 10:21:08;;;;;;;1.58;1.42;;;;;;;;;;5128056;27;20436;-66
2021/01/24 10:23:34;;;;;;;1.88;1.20;;;;;;;;;;5128286;27;20639;-66
2021/01/24 10:26:00;;;;;;;1.60;1.50;;;;;;;;;;5129169;27;20526;-66
2021/01/24 10:28:26;;;;;;;1.90;1.70;;;;;;;;;;5129463;27;20023;-67
2021/01/24 10:30:53;;;;;;;1.33;1.23;;;;;;;;;;5128625;27;20374;-66
2021/01/24 10:33:20;;;;;;;1.40;1.30;;;;;;;;;;5128130;27;20481;-67
2021/01/24 10:35:46;;;;;;;1.83;1.73;;;;;;;;;;5128334;27;20027;-66
2021/01/24 10:38:12;;;;;;;1.27;1.15;;;;;;;;;;5120138;27;20038;-67
2021/01/24 10:40:38;;;;;;;2.30;1.25;;;;;;;;;;5128584;27;20481;-66
2021/01/24 10:43:05;;;;;;;1.80;1.50;;;;;;;;;;5128641;27;20029;-66
2021/01/24 10:45:31;;;;;;;2.50;2.30;;;;;;;;;;5128017;27;20023;-67
2021/01/24 10:47:58;;;;;;;2.22;1.55;;;;;;;;;;5129349;27;20027;-67
2021/01/24 10:50:24;;;;;;;1.40;1.27;;;;;;;;;;5128717;27;20227;-67
2021/01/24 10:52:51;;;;;;;3.45;2.65;;;;;;;;;;5128742;27;20064;-66
2021/01/24 10:55:17;;;;;;;1.65;1.55;;;;;;;;;;5128519;27;20126;-66
2021/01/24 10:57:43;;;;;;;1.48;1.35;;;;;;;;;;5128642;27;20160;-66
2021/01/24 11:00:09;;;;;;;1.50;1.40;;;;;;;;;;5128931;27;20531;-67
2021/01/24 11:02:36;;;;;;;2.05;1.88;;;;;;;;;;5126847;27;20038;-67
2021/01/24 11:05:02;;;;;;;2.00;1.75;;;;;;;;;;5127171;27;20039;-66
2021/01/24 11:07:28;;;;;;;1.17;1.08;;;;;;;;;;5127811;27;20427;-67
2021/01/24 11:09:55;;;;;;;1.67;1.33;;;;;;;;;;5129380;27;20019;-66
2021/01/24 11:12:22;;;;;;;2.03;1.45;;;;;;;;;;5128107;27;20019;-67
2021/01/24 11:14:48;;;;;;;1.70;1.60;;;;;;;;;;5127884;27;20425;-66
2021/01/24 11:17:14;;;;;;;1.40;1.30;;;;;;;;;;5128191;27;20034;-67
2021/01/24 11:19:41;;;;;;;2.30;2.05;;;;;;;;;;5128855;27;20454;-66
2021/01/24 11:22:07;;;;;;;3.15;2.38;;;;;;;;;;5127600;27;20031;-66
2021/01/24 11:24:33;;;;;;;1.63;1.52;;;;;;;;;;5126649;27;20027;-66
2021/01/24 11:26:59;;;;;;;1.65;1.55;;;;;;;;;;5129476;27;20046;-66
2021/01/24 11:29:26;;;;;;;1.90;1.50;;;;;;;;;;5127723;27;20027;-66
2021/01/24 11:31:52;;;;;;;1.38;1.27;;;;;;;;;;5129182;28;20477;-67
2021/01/24 11:34:18;;;;;;;1.83;1.73;;;;;;;;;;5127969;28;20102;-66
2021/01/24 11:36:44;;;;;;;2.15;1.25;;;;;;;;;;5127068;28;20099;-66
2021/01/24 11:39:10;;;;;;;1.48;1.38;;;;;;;;;;5128856;28;20038;-66
2021/01/24 11:41:36;;;;;;;1.77;1.67;;;;;;;;;;5128036;28;20315;-66
2021/01/24 11:44:02;;;;;;;1.90;1.70;;;;;;;;;;5129055;28;20054;-66
2021/01/24 11:46:28;;;;;;;1.65;1.23;;;;;;;;;;5126437;28;20029;-66
2021/01/24 11:48:54;;;;;;;1.77;1.50;;;;;;;;;;5128341;28;20565;-66
2021/01/24 11:51:21;;;;;;;1.35;1.25;;;;;;;;;;5127418;28;20027;-66
2021/01/24 11:53:47;;;;;;;2.28;2.00;;;;;;;;;;5124160;28;20241;-66
2021/01/24 11:56:14;;;;;;;2.00;1.50;;;;;;;;;;5128287;28;20023;-66
2021/01/24 11:58:40;;;;;;;2.25;1.55;;;;;;;;;;5127811;28;20053;-66
2021/01/24 12:01:06;;;;;;;1.10;0.88;;;;;;;;;;5128927;28;20027;-66
2021/01/24 12:03:32;;;;;;;1.83;1.67;;;;;;;;;;5128080;28;20049;-66
2021/01/24 12:05:58;;;;;;;1.27;1.17;;;;;;;;;;5126825;28;20055;-66
2021/01/24 12:08:24;;;;;;;1.30;1.20;;;;;;;;;;5127158;28;20094;-66
2021/01/24 12:10:50;;;;;;;1.80;1.70;;;;;;;;;;5127888;28;20027;-66
2021/01/24 12:13:16;;;;;;;1.63;1.52;;;;;;;;;;5128220;28;20023;-66
2021/01/24 12:15:42;;;;;;;1.45;1.17;;;;;;;;;;5127830;28;20027;-66
2021/01/24 12:18:09;;;;;;;1.73;1.50;;;;;;;;;;5127721;28;20031;-66
2021/01/24 12:20:35;;;;;;;1.75;1.65;;;;;;;;;;5127439;28;20024;-66
2021/01/24 12:23:01;;;;;;;2.63;2.13;;;;;;;;;;5127959;28;20077;-66
2021/01/24 12:25:27;;;;;;;2.97;2.50;;;;;;;;;;5127663;28;20033;-66
2021/01/24 12:27:53;;;;;;;2.40;2.20;;;;;;;;;;5127322;28;20046;-66
2021/01/24 12:30:19;;;;;;;2.78;1.77;;;;;;;;;;5127183;28;20060;-67
2021/01/24 12:32:45;;;;;;;1.35;1.25;;;;;;;;;;5128225;28;20263;-66
2021/01/24 12:35:12;;;;;;;2.35;2.03;;;;;;;;;;5127702;28;20481;-67
2021/01/24 12:37:38;;;;;;;2.58;1.90;;;;;;;;;;5118868;28;20031;-66
2021/01/24 12:40:04;;;;;;;2.60;1.70;;;;;;;;;;5128651;28;20027;-66
2021/01/24 12:42:30;;;;;;;1.85;1.65;;;;;;;;;;5128839;27;20111;-66
2021/01/24 12:44:56;;;;;;;1.80;1.70;;;;;;;;;;5131915;27;20023;-66
2021/01/24 12:47:23;;;;;;;1.40;1.30;;;;;;;;;;5131570;27;20038;-66
2021/01/24 12:49:49;;;;;;;1.42;1.33;;;;;;;;;;5130291;27;20083;-66
2021/01/24 12:52:15;;;;;;;2.35;1.88;;;;;;;;;;5143624;27;20480;-66
2021/01/24 12:54:41;;;;;;;2.40;1.40;;;;;;;;;;5151168;27;20030;-66
2021/01/24 12:57:07;;;;;;;2.50;2.08;;;;;;;;;;5152823;27;20026;-66
2021/01/24 12:59:33;;;;;;;2.25;1.65;;;;;;;;;;5150873;27;20125;-66
2021/01/24 13:02:03;;;;;;;2.10;1.90;;;;;;;;;;5151691;27;20030;-66
2021/01/24 13:04:30;;;;;;;1.67;1.40;;;;;;;;;;5151157;27;20043;-66
2021/01/24 13:06:56;;;;;;;1.80;1.55;;;;;;;;;;5150952;27;20039;-67
2021/01/24 13:09:22;;;;;;;1.45;1.08;;;;;;;;;;5150612;27;20042;-66
2021/01/24 13:11:48;;;;;;;1.65;1.55;;;;;;;;;;5151667;27;20368;-66
2021/01/24 13:14:14;;;;;;;1.95;1.58;;;;;;;;;;5150273;27;20592;-66
2021/01/24 13:16:40;;;;;;;2.08;1.63;;;;;;;;;;5151280;27;20122;-66
2021/01/24 13:19:06;;;;;;;1.52;1.42;;;;;;;;;;5151594;27;20023;-67
2021/01/24 13:21:32;;;;;;;1.60;1.40;;;;;;;;;;5140411;27;20049;-66
2021/01/24 13:23:59;;;;;;;1.67;1.58;;;;;;;;;;5131670;27;20419;-66
2021/01/24 13:26:25;;;;;;;1.45;1.30;;;;;;;;;;5129948;27;20042;-66
2021/01/24 13:28:52;;;;;;;1.52;1.42;;;;;;;;;;5122774;27;20125;-66
2021/01/24 13:31:20;;;;;;;1.30;1.23;;;;;;;;;;5129219;27;20033;-66
2021/01/24 13:33:46;;;;;;;1.38;1.27;;;;;;;;;;5130911;27;20094;-66
2021/01/24 13:36:12;;;;;;;1.20;1.08;;;;;;;;;;5129767;27;20031;-66
2021/01/24 13:38:39;;;;;;;1.20;1.10;;;;;;;;;;5128795;27;20034;-67
2021/01/24 13:41:05;;;;;;;2.20;1.65;;;;;;;;;;5127447;27;20034;-67
2021/01/24 13:43:32;;;;;;;3.13;1.65;;;;;;;;;;5109102;27;20385;-67
2021/01/24 13:45:58;;;;;;;1.98;1.20;;;;;;;;;;5129679;27;20102;-66
2021/01/24 13:48:24;;;;;;;0.85;0.85;;;;;;;;;;5129636;27;20532;-67
2021/01/24 13:50:51;;;;;;;2.47;1.00;;;;;;;;;;5130906;27;20106;-67
2021/01/24 13:53:17;;;;;;;1.02;1.00;;;;;;;;;;5124994;27;20027;-67
2021/01/24 13:55:43;;;;;;;2.47;1.20;;;;;;;;;;5130360;27;20073;-66
2021/01/24 13:58:09;;;;;;;1.58;1.40;;;;;;;;;;5129217;27;20026;-67
2021/01/24 14:00:35;;;;;;;1.42;1.30;;;;;;;;;;5129889;27;20393;-67
2021/01/24 14:03:01;;;;;;;1.95;1.70;;;;;;;;;;5130216;27;20118;-66
2021/01/24 14:05:27;;;;;;;1.10;0.95;;;;;;;;;;5129560;27;20047;-67
2021/01/24 14:07:54;;;;;;;1.35;0.85;;;;;;;;;;5128662;27;20080;-67
2021/01/24 14:10:20;;;;;;;0.93;0.90;;;;;;;;;;5129336;27;20034;-67
2021/01/24 14:12:46;;;;;;;0.73;0.73;;;;;;;;;;5130204;27;20031;-67
2021/01/24 14:15:12;;;;;;;1.00;0.70;;;;;;;;;;5129644;27;20106;-67
2021/01/24 14:17:39;;;;;;;0.80;0.80;;;;;;;;;;5129498;27;20031;-67
2021/01/24 14:20:06;;;;;;;1.38;1.17;;;;;;;;;;5129084;27;20059;-67
2021/01/24 14:22:32;;;;;;;0.63;0.60;;;;;;;;;;5111203;27;20084;-66
2021/01/24 14:24:58;;;;;;;0.88;0.88;;;;;;;;;;5128908;27;20027;-67
2021/01/24 14:27:24;;;;;;;0.50;0.50;;;;;;;;;;5129489;27;20075;-66
2021/01/24 14:29:50;;;;;;;1.15;0.95;;;;;;;;;;5129420;27;20023;-66
2021/01/24 14:32:16;;;;;;;0.65;0.63;;;;;;;;;;5129479;27;20027;-67
2021/01/24 14:34:42;;;;;;;0.40;0.40;;;;;;;;;;5128129;27;20413;-67
2021/01/24 14:37:08;;;;;;;1.02;0.90;;;;;;;;;;5123176;27;20023;-66
2021/01/24 14:39:34;;;;;;;0.80;0.80;;;;;;;;;;5126635;27;20031;-67
2021/01/24 14:42:00;;;;;;;1.15;0.73;;;;;;;;;;5129008;27;20520;-67
2021/01/24 14:44:26;;;;;;;0.82;0.82;;;;;;;;;;5128657;27;20027;-66